Terminal Aerodrome Forecast
Issued by NWS Memphis, TN

Home | Current Version | Previous Version | Text Only | Print | Product List | Glossary On
Versions: 1 2 3 4 5 6 7 8 9 10 11 12 13 14 15 16 17
000
FTUS44 KMEG 300522
TAFJBR
TAF
KJBR 300522Z 3006/3106 34005KT P6SM SCT070
     FM300800 35004KT P6SM SKC
      TEMPO 3010/3013 5SM BR
     FM301600 07005KT P6SM SKC
     FM310100 16003KT P6SM SCT150=

USA.gov is the U.S. government's official web portal to all federal, state and local government web resources and services.